sensor_id;sensor_type;location;lat;lon;timestamp;pressure;altitude;pressure_sealevel;temperature;humidity
12759;BME280;20944;47.048;15.390;2023-01-20T00:01:08;96730.03;;;0.34;100.00
12759;BME280;20944;47.048;15.390;2023-01-20T00:03:38;96752.34;;;0.38;100.00
12759;BME280;20944;47.048;15.390;2023-01-20T00:06:07;96745.50;;;0.33;100.00
12759;BME280;20944;47.048;15.390;2023-01-20T00:08:35;96760.94;;;0.39;100.00
12759;BME280;20944;47.048;15.390;2023-01-20T00:11:04;96771.25;;;0.26;100.00
12759;BME280;20944;47.048;15.390;2023-01-20T00:13:34;96762.69;;;0.20;100.00
12759;BME280;20944;47.048;15.390;2023-01-20T00:16:03;96770.41;;;0.26;100.00
12759;BME280;20944;47.048;15.390;2023-01-20T00:18:32;96772.94;;;0.37;100.00
12759;BME280;20944;47.048;15.390;2023-01-20T00:21:01;96781.53;;;0.25;100.00
12759;BME280;20944;47.048;15.390;2023-01-20T00:23:31;96723.25;;;-0.25;100.00
12759;BME280;20944;47.048;15.390;2023-01-20T00:26:03;96789.28;;;0.34;100.00
12759;BME280;20944;47.048;15.390;2023-01-20T00:28:32;96782.41;;;0.22;100.00
12759;BME280;20944;47.048;15.390;2023-01-20T00:31:10;96795.28;;;0.27;100.00
12759;BME280;20944;47.048;15.390;2023-01-20T00:33:39;96812.44;;;0.31;100.00
12759;BME280;20944;47.048;15.390;2023-01-20T00:36:08;96815.00;;;0.43;100.00
12759;BME280;20944;47.048;15.390;2023-01-20T00:38:36;96809.88;;;0.42;100.00
12759;BME280;20944;47.048;15.390;2023-01-20T00:41:05;96815.88;;;0.45;100.00
12759;BME280;20944;47.048;15.390;2023-01-20T00:43:34;96803.03;;;0.13;100.00
12759;BME280;20944;47.048;15.390;2023-01-20T00:46:02;96830.47;;;0.19;100.00
12759;BME280;20944;47.048;15.390;2023-01-20T00:48:32;96811.59;;;0.17;100.00
12759;BME280;20944;47.048;15.390;2023-01-20T00:51:01;96857.13;;;0.27;100.00
12759;BME280;20944;47.048;15.390;2023-01-20T00:53:30;96835.66;;;0.20;100.00
12759;BME280;20944;47.048;15.390;2023-01-20T00:55:59;96837.38;;;-0.05;100.00
12759;BME280;20944;47.048;15.390;2023-01-20T00:58:27;96839.09;;;0.25;100.00
12759;BME280;20944;47.048;15.390;2023-01-20T01:00:55;96736.97;;;-0.29;100.00
12759;BME280;20944;47.048;15.390;2023-01-20T01:03:24;96815.88;;;0.12;100.00
12759;BME280;20944;47.048;15.390;2023-01-20T01:06:04;96839.06;;;0.30;100.00
12759;BME280;20944;47.048;15.390;2023-01-20T01:08:33;96833.06;;;0.33;100.00
12759;BME280;20944;47.048;15.390;2023-01-20T01:11:02;96828.75;;;0.24;100.00
12759;BME280;20944;47.048;15.390;2023-01-20T01:13:30;96767.84;;;-0.23;100.00
12759;BME280;20944;47.048;15.390;2023-01-20T01:15:58;96821.91;;;0.11;100.00
12759;BME280;20944;47.048;15.390;2023-01-20T01:18:27;96836.50;;;0.16;100.00
12759;BME280;20944;47.048;15.390;2023-01-20T01:20:57;96815.91;;;-0.02;100.00
12759;BME280;20944;47.048;15.390;2023-01-20T01:23:26;96814.19;;;-0.05;100.00
12759;BME280;20944;47.048;15.390;2023-01-20T01:25:55;96840.78;;;0.05;100.00
12759;BME280;20944;47.048;15.390;2023-01-20T01:28:23;96834.78;;;-0.06;100.00
12759;BME280;20944;47.048;15.390;2023-01-20T01:30:51;96832.19;;;-0.08;100.00
12759;BME280;20944;47.048;15.390;2023-01-20T01:33:19;96842.50;;;-0.08;100.00
12759;BME280;20944;47.048;15.390;2023-01-20T01:35:54;96837.34;;;0.06;100.00
12759;BME280;20944;47.048;15.390;2023-01-20T01:38:23;96837.34;;;-0.03;100.00
12759;BME280;20944;47.048;15.390;2023-01-20T01:40:53;96833.03;;;-0.21;100.00
12759;BME280;20944;47.048;15.390;2023-01-20T01:43:23;96834.72;;;-0.40;100.00
12759;BME280;20944;47.048;15.390;2023-01-20T01:45:51;96824.44;;;-0.49;100.00
12759;BME280;20944;47.048;15.390;2023-01-20T01:48:21;96771.19;;;-0.85;100.00
12759;BME280;20944;47.048;15.390;2023-01-20T01:50:52;96833.00;;;-0.48;100.00
12759;BME280;20944;47.048;15.390;2023-01-20T01:53:24;96806.41;;;-0.52;100.00
12759;BME280;20944;47.048;15.390;2023-01-20T01:55:57;96824.44;;;-0.43;100.00
12759;BME280;20944;47.048;15.390;2023-01-20T01:58:28;96796.09;;;-0.52;100.00
12759;BME280;20944;47.048;15.390;2023-01-20T02:00:58;96820.16;;;-0.42;100.00
12759;BME280;20944;47.048;15.390;2023-01-20T02:03:30;96826.16;;;-0.43;100.00
12759;BME280;20944;47.048;15.390;2023-01-20T02:06:03;96821.00;;;-0.43;100.00
12759;BME280;20944;47.048;15.390;2023-01-20T02:08:33;96827.88;;;-0.33;100.00
12759;BME280;20944;47.048;15.390;2023-01-20T02:11:02;96803.84;;;-0.41;100.00
12759;BME280;20944;47.048;15.390;2023-01-20T02:13:30;96842.47;;;-0.28;100.00
12759;BME280;20944;47.048;15.390;2023-01-20T02:16:01;96822.72;;;-0.27;100.00
12759;BME280;20944;47.048;15.390;2023-01-20T02:18:41;96758.34;;;-0.64;100.00
12759;BME280;20944;47.048;15.390;2023-01-20T02:21:46;96827.06;;;-0.18;100.00
12759;BME280;20944;47.048;15.390;2023-01-20T02:27:45;96779.81;;;-0.59;100.00
12759;BME280;20944;47.048;15.390;2023-01-20T02:30:35;96738.59;;;-0.92;100.00
12759;BME280;20944;47.048;15.390;2023-01-20T02:33:09;96800.44;;;-0.36;100.00
12759;BME280;20944;47.048;15.390;2023-01-20T02:35:44;96761.78;;;-0.59;100.00
12759;BME280;20944;47.048;15.390;2023-01-20T02:38:18;96831.31;;;-0.28;100.00
12759;BME280;20944;47.048;15.390;2023-01-20T02:40:55;96802.16;;;-0.30;100.00
12759;BME280;20944;47.048;15.390;2023-01-20T02:43:31;96397.53;;;-2.52;100.00
12759;BME280;20944;47.048;15.390;2023-01-20T02:46:08;96802.16;;;-0.22;100.00
12759;BME280;20944;47.048;15.390;2023-01-20T02:48:43;96755.78;;;-0.67;100.00
12759;BME280;20944;47.048;15.390;2023-01-20T02:51:16;96686.31;;;-1.06;100.00
12759;BME280;20944;47.048;15.390;2023-01-20T02:53:49;96802.13;;;-0.33;100.00
12759;BME280;20944;47.048;15.390;2023-01-20T02:56:21;96801.25;;;-0.50;100.00
12759;BME280;20944;47.048;15.390;2023-01-20T02:58:54;96812.41;;;-0.56;100.00
12759;BME280;20944;47.048;15.390;2023-01-20T03:01:25;96781.47;;;-0.76;100.00
12759;BME280;20944;47.048;15.390;2023-01-20T03:04:00;96814.97;;;-0.61;100.00
12759;BME280;20944;47.048;15.390;2023-01-20T03:06:35;96822.69;;;-0.61;100.00
12759;BME280;20944;47.048;15.390;2023-01-20T03:09:06;96821.81;;;-0.60;100.00
12759;BME280;20944;47.048;15.390;2023-01-20T03:11:39;96832.97;;;-0.51;100.00
12759;BME280;20944;47.048;15.390;2023-01-20T03:14:10;96832.16;;;-0.41;100.00
12759;BME280;20944;47.048;15.390;2023-01-20T03:16:39;96790.94;;;-0.64;100.00
12759;BME280;20944;47.048;15.390;2023-01-20T03:19:09;96798.69;;;-0.53;100.00
12759;BME280;20944;47.048;15.390;2023-01-20T03:21:38;96828.72;;;-0.40;100.00
12759;BME280;20944;47.048;15.390;2023-01-20T03:24:06;96820.97;;;-0.54;100.00
12759;BME280;20944;47.048;15.390;2023-01-20T03:26:34;96739.41;;;-1.12;100.00
12759;BME280;20944;47.048;15.390;2023-01-20T03:29:04;96800.34;;;-0.75;100.00
12759;BME280;20944;47.048;15.390;2023-01-20T03:31:35;96796.09;;;-0.66;100.00
12759;BME280;20944;47.048;15.390;2023-01-20T03:34:07;96820.13;;;-0.51;100.00
12759;BME280;20944;47.048;15.390;2023-01-20T03:36:40;96597.75;;;-2.09;100.00
12759;BME280;20944;47.048;15.390;2023-01-20T03:39:10;96813.25;;;-0.59;100.00
12759;BME280;20944;47.048;15.390;2023-01-20T03:41:47;96826.97;;;-0.50;100.00
12759;BME280;20944;47.048;15.390;2023-01-20T03:44:24;96820.16;;;-0.38;100.00
12759;BME280;20944;47.048;15.390;2023-01-20T03:46:59;96684.47;;;-1.43;100.00
12759;BME280;20944;47.048;15.390;2023-01-20T03:49:37;96832.09;;;-0.69;100.00
12759;BME280;20944;47.048;15.390;2023-01-20T03:52:17;96834.63;;;-0.76;100.00
12759;BME280;20944;47.048;15.390;2023-01-20T03:55:13;96830.28;;;-0.90;100.00
12759;BME280;20944;47.048;15.390;2023-01-20T03:57:47;96830.34;;;-0.80;100.00
12759;BME280;20944;47.048;15.390;2023-01-20T04:00:19;96832.88;;;-0.82;100.00
12759;BME280;20944;47.048;15.390;2023-01-20T04:02:49;96836.31;;;-0.83;100.00
12759;BME280;20944;47.048;15.390;2023-01-20T04:05:17;96842.28;;;-0.92;100.00
12759;BME280;20944;47.048;15.390;2023-01-20T04:07:48;96833.66;;;-1.03;100.00
12759;BME280;20944;47.048;15.390;2023-01-20T04:10:18;96823.38;;;-1.01;100.00
12759;BME280;20944;47.048;15.390;2023-01-20T04:12:47;96823.41;;;-0.97;100.00
12759;BME280;20944;47.048;15.390;2023-01-20T04:15:15;96805.34;;;-1.08;100.00
12759;BME280;20944;47.048;15.390;2023-01-20T04:17:45;96730.63;;;-1.63;100.00
12759;BME280;20944;47.048;15.390;2023-01-20T04:20:14;96768.44;;;-1.29;100.00
12759;BME280;20944;47.048;15.390;2023-01-20T04:22:46;96844.91;;;-0.81;100.00
12759;BME280;20944;47.048;15.390;2023-01-20T04:25:21;96823.41;;;-0.98;100.00
12759;BME280;20944;47.048;15.390;2023-01-20T04:27:50;96823.28;;;-1.21;100.00
12759;BME280;20944;47.048;15.390;2023-01-20T04:30:19;96850.06;;;-0.79;100.00
12759;BME280;20944;47.048;15.390;2023-01-20T04:32:47;96862.06;;;-0.74;100.00
12759;BME280;20944;47.048;15.390;2023-01-20T04:35:16;96856.94;;;-0.65;100.00
12759;BME280;20944;47.048;15.390;2023-01-20T04:37:46;96838.03;;;-0.87;100.00
12759;BME280;20944;47.048;15.390;2023-01-20T04:40:15;96882.59;;;-0.85;100.00
12759;BME280;20944;47.048;15.390;2023-01-20T04:42:43;96875.69;;;-0.90;100.00
12759;BME280;20944;47.048;15.390;2023-01-20T04:45:13;96882.53;;;-0.97;100.00
12759;BME280;20944;47.048;15.390;2023-01-20T04:47:43;96867.00;;;-1.14;100.00
12759;BME280;20944;47.048;15.390;2023-01-20T04:50:12;96874.63;;;-1.29;100.00
12759;BME280;20944;47.048;15.390;2023-01-20T04:52:41;96827.44;;;-1.45;100.00
12759;BME280;20944;47.048;15.390;2023-01-20T04:55:11;96892.78;;;-1.04;100.00
12759;BME280;20944;47.048;15.390;2023-01-20T04:57:40;96889.34;;;-1.03;100.00
12759;BME280;20944;47.048;15.390;2023-01-20T05:00:10;96805.16;;;-1.49;100.00
12759;BME280;20944;47.048;15.390;2023-01-20T05:02:44;96830.09;;;-1.28;100.00
12759;BME280;20944;47.048;15.390;2023-01-20T05:05:12;96904.03;;;-0.79;100.00
12759;BME280;20944;47.048;15.390;2023-01-20T05:07:41;96882.59;;;-0.83;100.00
12759;BME280;20944;47.048;15.390;2023-01-20T05:10:11;96907.53;;;-0.65;100.00
12759;BME280;20944;47.048;15.390;2023-01-20T05:12:39;96913.53;;;-0.65;100.00
12759;BME280;20944;47.048;15.390;2023-01-20T05:15:09;96910.97;;;-0.66;100.00
12759;BME280;20944;47.048;15.390;2023-01-20T05:17:37;96923.78;;;-0.74;100.00
12759;BME280;20944;47.048;15.390;2023-01-20T05:20:06;96914.31;;;-0.84;100.00
12759;BME280;20944;47.048;15.390;2023-01-20T05:22:34;96900.53;;;-0.97;100.00
12759;BME280;20944;47.048;15.390;2023-01-20T05:25:03;96925.47;;;-0.79;100.00
12759;BME280;20944;47.048;15.390;2023-01-20T05:27:34;96920.34;;;-0.77;100.00
12759;BME280;20944;47.048;15.390;2023-01-20T05:30:04;96883.31;;;-1.13;100.00
12759;BME280;20944;47.048;15.390;2023-01-20T05:32:33;96927.19;;;-0.78;100.00
12759;BME280;20944;47.048;15.390;2023-01-20T05:35:01;96914.44;;;-0.57;100.00
12759;BME280;20944;47.048;15.390;2023-01-20T05:37:29;96917.88;;;-0.53;100.00
12759;BME280;20944;47.048;15.390;2023-01-20T05:39:57;96910.13;;;-0.61;100.00
12759;BME280;20944;47.048;15.390;2023-01-20T05:42:25;96856.84;;;-0.92;100.00
12759;BME280;20944;47.048;15.390;2023-01-20T05:44:55;96904.97;;;-0.64;100.00
12759;BME280;20944;47.048;15.390;2023-01-20T05:47:23;96899.00;;;-0.53;100.00
12759;BME280;20944;47.048;15.390;2023-01-20T05:49:51;96921.28;;;-0.62;100.00
12759;BME280;20944;47.048;15.390;2023-01-20T05:52:20;96892.06;;;-0.73;100.00
12759;BME280;20944;47.048;15.390;2023-01-20T05:54:48;96894.63;;;-0.77;100.00
12759;BME280;20944;47.048;15.390;2023-01-20T05:57:16;96896.41;;;-0.63;100.00
12759;BME280;20944;47.048;15.390;2023-01-20T05:59:44;96880.81;;;-0.96;100.00
12759;BME280;20944;47.048;15.390;2023-01-20T06:02:14;96885.16;;;-0.85;100.00
12759;BME280;20944;47.048;15.390;2023-01-20T06:04:44;96437.22;;;-3.44;100.00
12759;BME280;20944;47.048;15.390;2023-01-20T06:07:13;96843.09;;;-1.06;100.00
12759;BME280;20944;47.048;15.390;2023-01-20T06:09:41;96892.16;;;-0.56;100.00
12759;BME280;20944;47.048;15.390;2023-01-20T06:12:09;96891.28;;;-0.63;100.00
12759;BME280;20944;47.048;15.390;2023-01-20T06:14:38;96893.75;;;-0.76;100.00
12759;BME280;20944;47.048;15.390;2023-01-20T06:17:06;96756.34;;;-1.56;100.00
12759;BME280;20944;47.048;15.390;2023-01-20T06:19:36;96892.84;;;-0.89;100.00
12759;BME280;20944;47.048;15.390;2023-01-20T06:22:05;96848.22;;;-1.05;100.00
12759;BME280;20944;47.048;15.390;2023-01-20T06:24:34;96864.59;;;-0.86;100.00
12759;BME280;20944;47.048;15.390;2023-01-20T06:27:02;96844.88;;;-0.83;100.00
12759;BME280;20944;47.048;15.390;2023-01-20T06:29:30;96861.22;;;-0.71;100.00
12759;BME280;20944;47.048;15.390;2023-01-20T06:31:59;96868.94;;;-0.71;100.00
12759;BME280;20944;47.048;15.390;2023-01-20T06:34:27;96865.53;;;-0.66;100.00
12759;BME280;20944;47.048;15.390;2023-01-20T06:36:56;96870.66;;;-0.66;100.00
12759;BME280;20944;47.048;15.390;2023-01-20T06:39:25;96820.84;;;-0.89;100.00
12759;BME280;20944;47.048;15.390;2023-01-20T06:41:56;96852.63;;;-0.72;100.00
12759;BME280;20944;47.048;15.390;2023-01-20T06:44:25;96860.38;;;-0.69;100.00
12759;BME280;20944;47.048;15.390;2023-01-20T06:46:53;96861.28;;;-0.53;100.00
12759;BME280;20944;47.048;15.390;2023-01-20T06:49:23;96845.00;;;-0.46;100.00
12759;BME280;20944;47.048;15.390;2023-01-20T06:51:51;96845.88;;;-0.33;100.00
12759;BME280;20944;47.048;15.390;2023-01-20T06:54:21;96704.25;;;-1.16;100.00
12759;BME280;20944;47.048;15.390;2023-01-20T06:56:49;96796.13;;;-0.46;100.00
12759;BME280;20944;47.048;15.390;2023-01-20T06:59:17;96844.19;;;-0.14;100.00
12759;BME280;20944;47.048;15.390;2023-01-20T07:01:45;96841.63;;;-0.10;100.00
12759;BME280;20944;47.048;15.390;2023-01-20T07:04:14;96844.22;;;-0.01;100.00
12759;BME280;20944;47.048;15.390;2023-01-20T07:06:42;96837.34;;;0.05;100.00
12759;BME280;20944;47.048;15.390;2023-01-20T07:09:11;96832.22;;;0.11;100.00
12759;BME280;20944;47.048;15.390;2023-01-20T07:11:41;96833.94;;;0.15;100.00
12759;BME280;20944;47.048;15.390;2023-01-20T07:14:09;96851.97;;;0.19;100.00
12759;BME280;20944;47.048;15.390;2023-01-20T07:16:37;96857.09;;;0.22;100.00
12759;BME280;20944;47.048;15.390;2023-01-20T07:19:06;96858.81;;;0.28;100.00
12759;BME280;20944;47.048;15.390;2023-01-20T07:21:34;96838.19;;;0.19;100.00
12759;BME280;20944;47.048;15.390;2023-01-20T07:24:04;96856.25;;;0.33;100.00
12759;BME280;20944;47.048;15.390;2023-01-20T07:26:32;96701.78;;;-0.61;100.00
12759;BME280;20944;47.048;15.390;2023-01-20T07:29:02;96779.00;;;-0.09;100.00
12759;BME280;20944;47.048;15.390;2023-01-20T07:31:30;96838.22;;;0.28;100.00
12759;BME280;20944;47.048;15.390;2023-01-20T07:34:00;96845.94;;;0.31;100.00
12759;BME280;20944;47.048;15.390;2023-01-20T07:36:28;96858.81;;;0.52;100.00
12759;BME280;20944;47.048;15.390;2023-01-20T07:38:56;96833.06;;;0.46;100.00
12759;BME280;20944;47.048;15.390;2023-01-20T07:41:24;96857.94;;;0.61;100.00
12759;BME280;20944;47.048;15.390;2023-01-20T07:43:53;96846.78;;;0.64;100.00
12759;BME280;20944;47.048;15.390;2023-01-20T07:46:23;96862.22;;;0.77;100.00
12759;BME280;20944;47.048;15.390;2023-01-20T07:48:51;96863.06;;;0.86;100.00
12759;BME280;20944;47.048;15.390;2023-01-20T07:51:19;96856.16;;;0.88;100.00
12759;BME280;20944;47.048;15.390;2023-01-20T07:53:49;96863.91;;;0.92;73.22
12759;BME280;20944;47.048;15.390;2023-01-20T07:56:21;96835.53;;;0.86;71.58
12759;BME280;20944;47.048;15.390;2023-01-20T07:58:52;96848.44;;;0.86;69.60
12759;BME280;20944;47.048;15.390;2023-01-20T08:01:24;96851.00;;;0.91;70.79
12759;BME280;20944;47.048;15.390;2023-01-20T08:03:53;96837.28;;;0.81;69.21
12759;BME280;20944;47.048;15.390;2023-01-20T08:06:23;96881.88;;;1.12;69.64
12759;BME280;20944;47.048;15.390;2023-01-20T08:08:52;96887.94;;;1.08;68.28
12759;BME280;20944;47.048;15.390;2023-01-20T08:11:23;96899.09;;;1.15;68.67
12759;BME280;20944;47.048;15.390;2023-01-20T08:13:51;96849.31;;;0.85;67.60
12759;BME280;20944;47.048;15.390;2023-01-20T08:16:20;96875.91;;;1.08;68.60
12759;BME280;20944;47.048;15.390;2023-01-20T08:18:52;96652.03;;;-0.38;67.71
12759;BME280;20944;47.048;15.390;2023-01-20T08:21:22;96897.38;;;1.12;67.70
12759;BME280;20944;47.048;15.390;2023-01-20T08:23:53;96899.06;;;1.21;66.81
12759;BME280;20944;47.048;15.390;2023-01-20T08:26:21;96892.19;;;1.21;66.63
12759;BME280;20944;47.048;15.390;2023-01-20T08:28:51;96901.63;;;1.30;67.09
12759;BME280;20944;47.048;15.390;2023-01-20T08:31:21;96896.47;;;1.33;67.01
12759;BME280;20944;47.048;15.390;2023-01-20T08:33:53;96886.16;;;1.22;66.57
12759;BME280;20944;47.048;15.390;2023-01-20T08:36:24;96902.44;;;1.37;66.06
12759;BME280;20944;47.048;15.390;2023-01-20T08:38:54;96901.59;;;1.39;66.24
12759;BME280;20944;47.048;15.390;2023-01-20T08:41:24;96909.34;;;1.36;65.95
12759;BME280;20944;47.048;15.390;2023-01-20T08:43:53;96922.22;;;1.44;65.83
12759;BME280;20944;47.048;15.390;2023-01-20T08:46:22;96895.56;;;1.35;65.65
12759;BME280;20944;47.048;15.390;2023-01-20T08:48:52;96915.31;;;1.49;66.28
12759;BME280;20944;47.048;15.390;2023-01-20T08:51:24;96909.28;;;1.48;65.80
12759;BME280;20944;47.048;15.390;2023-01-20T08:53:52;96917.88;;;1.50;65.26
12759;BME280;20944;47.048;15.390;2023-01-20T08:56:21;96884.44;;;1.23;65.62
12759;BME280;20944;47.048;15.390;2023-01-20T08:58:49;96917.91;;;1.46;64.38
12759;BME280;20944;47.048;15.390;2023-01-20T09:01:25;96923.09;;;1.46;65.51
12759;BME280;20944;47.048;15.390;2023-01-20T09:03:55;96853.56;;;0.98;64.38
12759;BME280;20944;47.048;15.390;2023-01-20T09:06:37;96920.44;;;1.56;63.96
12759;BME280;20944;47.048;15.390;2023-01-20T09:09:05;96826.03;;;1.00;64.45
12759;BME280;20944;47.048;15.390;2023-01-20T09:11:34;96919.63;;;1.44;64.86
12759;BME280;20944;47.048;15.390;2023-01-20T09:14:02;96887.81;;;1.40;64.23
12759;BME280;20944;47.048;15.390;2023-01-20T09:16:30;96906.69;;;1.59;63.81
12759;BME280;20944;47.048;15.390;2023-01-20T09:19:00;96911.84;;;1.56;64.70
12759;BME280;20944;47.048;15.390;2023-01-20T09:21:28;96913.63;;;1.42;64.90
12759;BME280;20944;47.048;15.390;2023-01-20T09:23:57;96912.72;;;1.58;64.33
12759;BME280;20944;47.048;15.390;2023-01-20T09:26:25;96910.13;;;1.58;63.77
12759;BME280;20944;47.048;15.390;2023-01-20T09:29:01;96906.69;;;1.59;64.18
12759;BME280;20944;47.048;15.390;2023-01-20T09:31:36;96859.47;;;1.31;64.08
12759;BME280;20944;47.048;15.390;2023-01-20T09:34:07;96861.16;;;1.40;63.85
12759;BME280;20944;47.048;15.390;2023-01-20T09:36:35;96906.59;;;1.73;63.96
12759;BME280;20944;47.048;15.390;2023-01-20T09:39:03;96915.16;;;1.84;63.39
12759;BME280;20944;47.048;15.390;2023-01-20T09:41:47;96897.16;;;1.72;63.13
12759;BME280;20944;47.048;15.390;2023-01-20T09:44:44;96919.44;;;1.88;63.17
12759;BME280;20944;47.048;15.390;2023-01-20T09:47:21;96879.97;;;1.66;63.49
12759;BME280;20944;47.048;15.390;2023-01-20T09:50:18;96919.44;;;1.91;63.18
12759;BME280;20944;47.048;15.390;2023-01-20T09:53:09;96922.03;;;1.85;62.66
12759;BME280;20944;47.048;15.390;2023-01-20T09:55:46;96928.91;;;1.89;62.92
12759;BME280;20944;47.048;15.390;2023-01-20T09:58:24;96920.28;;;1.92;63.08
12759;BME280;20944;47.048;15.390;2023-01-20T10:01:03;96867.94;;;1.65;62.45
12759;BME280;20944;47.048;15.390;2023-01-20T10:03:38;96917.69;;;1.92;63.57
12759;BME280;20944;47.048;15.390;2023-01-20T10:06:14;96900.50;;;1.87;62.90
12759;BME280;20944;47.048;15.390;2023-01-20T10:08:50;96910.78;;;1.97;62.73
12759;BME280;20944;47.048;15.390;2023-01-20T10:11:34;96910.75;;;2.00;62.64
12759;BME280;20944;47.048;15.390;2023-01-20T10:14:10;96909.03;;;2.00;62.12
12759;BME280;20944;47.048;15.390;2023-01-20T10:16:47;96842.97;;;1.66;62.63
12759;BME280;20944;47.048;15.390;2023-01-20T10:19:20;96903.91;;;1.96;62.79
12759;BME280;20944;47.048;15.390;2023-01-20T10:22:02;96914.19;;;2.03;62.46
12759;BME280;20944;47.048;15.390;2023-01-20T10:24:34;96885.00;;;1.91;62.34
12759;BME280;20944;47.048;15.390;2023-01-20T10:27:06;96881.47;;;2.01;61.89
12759;BME280;20944;47.048;15.390;2023-01-20T10:29:36;96891.72;;;2.16;61.74
12759;BME280;20944;47.048;15.390;2023-01-20T10:32:11;96722.88;;;1.00;60.99
12759;BME280;20944;47.048;15.390;2023-01-20T10:34:43;96895.16;;;2.13;61.28
12759;BME280;20944;47.048;15.390;2023-01-20T10:37:13;96882.28;;;2.09;60.75
12759;BME280;20944;47.048;15.390;2023-01-20T10:39:46;96892.59;;;2.15;60.83
12759;BME280;20944;47.048;15.390;2023-01-20T10:42:17;96868.53;;;2.05;61.26
12759;BME280;20944;47.048;15.390;2023-01-20T10:44:47;96882.25;;;2.16;60.92
12759;BME280;20944;47.048;15.390;2023-01-20T10:47:36;96883.16;;;2.06;60.77
12759;BME280;20944;47.048;15.390;2023-01-20T10:50:28;96856.56;;;1.95;60.69
12759;BME280;20944;47.048;15.390;2023-01-20T10:53:18;96886.59;;;2.07;61.36
12759;BME280;20944;47.048;15.390;2023-01-20T10:55:59;96880.56;;;2.09;61.41
12759;BME280;20944;47.048;15.390;2023-01-20T10:58:30;96902.00;;;2.27;60.93
12759;BME280;20944;47.048;15.390;2023-01-20T11:01:03;96891.75;;;2.10;61.03
12759;BME280;20944;47.048;15.390;2023-01-20T11:03:35;96908.00;;;2.29;60.73
12759;BME280;20944;47.048;15.390;2023-01-20T11:06:07;96878.78;;;2.17;61.30
12759;BME280;20944;47.048;15.390;2023-01-20T11:08:42;96898.50;;;2.29;60.87
12759;BME280;20944;47.048;15.390;2023-01-20T11:11:11;96896.81;;;2.28;61.20
12759;BME280;20944;47.048;15.390;2023-01-20T11:13:41;96845.34;;;1.95;60.80
12759;BME280;20944;47.048;15.390;2023-01-20T11:16:13;96905.38;;;2.32;61.67
12759;BME280;20944;47.048;15.390;2023-01-20T11:18:54;96899.34;;;2.31;61.36
12759;BME280;20944;47.048;15.390;2023-01-20T11:21:23;96902.84;;;2.29;61.73
12759;BME280;20944;47.048;15.390;2023-01-20T11:23:54;96871.91;;;2.16;60.58
12759;BME280;20944;47.048;15.390;2023-01-20T11:26:24;96904.59;;;2.24;60.93
12759;BME280;20944;47.048;15.390;2023-01-20T11:28:55;96905.41;;;2.30;60.54
12759;BME280;20944;47.048;15.390;2023-01-20T11:31:35;96896.00;;;2.22;60.84
12759;BME280;20944;47.048;15.390;2023-01-20T11:34:19;96816.25;;;1.73;61.16
12759;BME280;20944;47.048;15.390;2023-01-20T11:36:49;96910.56;;;2.33;61.89
12759;BME280;20944;47.048;15.390;2023-01-20T11:39:27;96902.81;;;2.33;61.02
12759;BME280;20944;47.048;15.390;2023-01-20T11:42:10;96899.38;;;2.33;61.25
12759;BME280;20944;47.048;15.390;2023-01-20T11:44:42;96875.44;;;2.08;61.48
12759;BME280;20944;47.048;15.390;2023-01-20T11:47:21;96899.50;;;2.11;61.90
12759;BME280;20944;47.048;15.390;2023-01-20T11:50:26;96909.81;;;2.14;61.80
12759;BME280;20944;47.048;15.390;2023-01-20T11:53:11;96905.47;;;2.20;61.42
12759;BME280;20944;47.048;15.390;2023-01-20T11:55:47;96905.47;;;2.18;61.76
12759;BME280;20944;47.048;15.390;2023-01-20T11:58:18;96836.81;;;1.82;61.52
12759;BME280;20944;47.048;15.390;2023-01-20T12:00:49;96910.66;;;2.16;60.58
12759;BME280;20944;47.048;15.390;2023-01-20T12:06:19;96888.31;;;2.14;61.74
12759;BME280;20944;47.048;15.390;2023-01-20T12:08:55;96725.38;;;1.17;61.30
12759;BME280;20944;47.048;15.390;2023-01-20T12:11:28;96912.28;;;2.33;61.41
12759;BME280;20944;47.048;15.390;2023-01-20T12:14:05;96910.50;;;2.39;62.44
12759;BME280;20944;47.048;15.390;2023-01-20T12:17:12;96909.66;;;2.37;60.50
12759;BME280;20944;47.048;15.390;2023-01-20T12:22:44;96916.59;;;2.31;61.18
12759;BME280;20944;47.048;15.390;2023-01-20T12:25:18;96877.94;;;2.17;61.47
12759;BME280;20944;47.048;15.390;2023-01-20T12:27:52;96895.06;;;2.29;61.35
12759;BME280;20944;47.048;15.390;2023-01-20T12:30:36;96937.13;;;2.51;61.01
12759;BME280;20944;47.048;15.390;2023-01-20T12:33:14;96936.25;;;2.50;60.94
12759;BME280;20944;47.048;15.390;2023-01-20T12:39:12;96884.53;;;2.53;60.75
12759;BME280;20944;47.048;15.390;2023-01-20T12:42:01;96920.59;;;2.72;60.89
12759;BME280;20944;47.048;15.390;2023-01-20T12:44:37;96911.13;;;2.70;61.03
12759;BME280;20944;47.048;15.390;2023-01-20T12:47:16;96847.63;;;2.39;60.44
12759;BME280;20944;47.048;15.390;2023-01-20T12:49:58;96889.63;;;2.65;60.59
12759;BME280;20944;47.048;15.390;2023-01-20T12:52:44;96849.38;;;2.34;59.74
12759;BME280;20944;47.048;15.390;2023-01-20T12:55:22;96923.19;;;2.68;61.13
12759;BME280;20944;47.048;15.390;2023-01-20T12:58:06;96919.72;;;2.69;60.46
12759;BME280;20944;47.048;15.390;2023-01-20T13:00:53;96917.16;;;2.68;60.89
12759;BME280;20944;47.048;15.390;2023-01-20T13:09:37;96890.66;;;2.43;61.31
12759;BME280;20944;47.048;15.390;2023-01-20T13:12:20;96790.38;;;1.79;61.73
12759;BME280;20944;47.048;15.390;2023-01-20T13:14:55;96928.34;;;2.72;60.77
12759;BME280;20944;47.048;15.390;2023-01-20T13:17:31;96926.78;;;2.54;61.30
12759;BME280;20944;47.048;15.390;2023-01-20T13:20:04;96930.22;;;2.53;61.42
12759;BME280;20944;47.048;15.390;2023-01-20T13:22:41;96940.56;;;2.54;61.22
12759;BME280;20944;47.048;15.390;2023-01-20T13:25:12;96923.34;;;2.50;61.03
12759;BME280;20944;47.048;15.390;2023-01-20T13:27:44;96836.72;;;1.99;61.68
12759;BME280;20944;47.048;15.390;2023-01-20T13:30:39;96946.47;;;2.72;61.67
12759;BME280;20944;47.048;15.390;2023-01-20T13:33:16;96942.13;;;2.72;61.44
12759;BME280;20944;47.048;15.390;2023-01-20T13:35:47;96906.97;;;2.53;60.49